sensor_id;sensor_type;location;lat;lon;timestamp;temperature;humidity
52451;DHT22;38366;53.176;6.540;2022-09-17T00:00:08;11.70;99.90
52451;DHT22;38366;53.176;6.540;2022-09-17T00:02:34;11.70;99.90
52451;DHT22;38366;53.176;6.540;2022-09-17T00:05:00;11.80;99.90
52451;DHT22;38366;53.176;6.540;2022-09-17T00:07:26;11.80;99.90
52451;DHT22;38366;53.176;6.540;2022-09-17T00:09:52;11.90;99.90
52451;DHT22;38366;53.176;6.540;2022-09-17T00:12:18;11.90;99.90
52451;DHT22;38366;53.176;6.540;2022-09-17T00:14:43;11.90;99.90
52451;DHT22;38366;53.176;6.540;2022-09-17T00:17:09;11.90;99.90
52451;DHT22;38366;53.176;6.540;2022-09-17T00:19:35;11.90;99.90
52451;DHT22;38366;53.176;6.540;2022-09-17T00:22:00;11.90;99.90
52451;DHT22;38366;53.176;6.540;2022-09-17T00:24:26;12.00;99.90
52451;DHT22;38366;53.176;6.540;2022-09-17T00:26:52;12.00;99.90
52451;DHT22;38366;53.176;6.540;2022-09-17T00:29:18;12.10;99.90
52451;DHT22;38366;53.176;6.540;2022-09-17T00:31:43;12.10;99.90
52451;DHT22;38366;53.176;6.540;2022-09-17T00:34:09;11.90;99.90
52451;DHT22;38366;53.176;6.540;2022-09-17T00:36:38;11.90;99.90
52451;DHT22;38366;53.176;6.540;2022-09-17T00:39:05;11.80;99.90
52451;DHT22;38366;53.176;6.540;2022-09-17T00:41:32;11.80;99.90
52451;DHT22;38366;53.176;6.540;2022-09-17T00:44:01;11.80;99.90
52451;DHT22;38366;53.176;6.540;2022-09-17T00:46:32;11.70;99.90
52451;DHT22;38366;53.176;6.540;2022-09-17T00:49:02;11.70;99.90
52451;DHT22;38366;53.176;6.540;2022-09-17T00:51:54;11.60;99.90
52451;DHT22;38366;53.176;6.540;2022-09-17T00:54:22;11.60;99.90
52451;DHT22;38366;53.176;6.540;2022-09-17T00:56:48;11.60;99.90
52451;DHT22;38366;53.176;6.540;2022-09-17T00:59:17;11.60;99.90
52451;DHT22;38366;53.176;6.540;2022-09-17T01:01:43;11.60;99.90
52451;DHT22;38366;53.176;6.540;2022-09-17T01:04:24;11.50;99.90
52451;DHT22;38366;53.176;6.540;2022-09-17T01:07:05;11.50;99.90
52451;DHT22;38366;53.176;6.540;2022-09-17T01:17:30;11.10;99.90
52451;DHT22;38366;53.176;6.540;2022-09-17T01:26:19;10.80;99.90
52451;DHT22;38366;53.176;6.540;2022-09-17T01:37:13;10.70;99.90
52451;DHT22;38366;53.176;6.540;2022-09-17T01:39:55;10.70;99.90
52451;DHT22;38366;53.176;6.540;2022-09-17T01:42:48;10.60;99.90
52451;DHT22;38366;53.176;6.540;2022-09-17T01:47:53;10.50;99.90
52451;DHT22;38366;53.176;6.540;2022-09-17T01:50:30;10.50;99.90
52451;DHT22;38366;53.176;6.540;2022-09-17T01:52:59;10.40;99.90
52451;DHT22;38366;53.176;6.540;2022-09-17T01:55:30;10.40;99.90
52451;DHT22;38366;53.176;6.540;2022-09-17T01:58:36;10.60;99.90
52451;DHT22;38366;53.176;6.540;2022-09-17T02:01:06;10.40;99.90
52451;DHT22;38366;53.176;6.540;2022-09-17T02:03:45;10.40;99.90
52451;DHT22;38366;53.176;6.540;2022-09-17T02:06:17;10.40;99.90
52451;DHT22;38366;53.176;6.540;2022-09-17T02:08:50;10.40;99.90
52451;DHT22;38366;53.176;6.540;2022-09-17T02:11:17;10.50;99.90
52451;DHT22;38366;53.176;6.540;2022-09-17T02:13:45;10.70;99.90
52451;DHT22;38366;53.176;6.540;2022-09-17T02:16:24;10.60;99.90
52451;DHT22;38366;53.176;6.540;2022-09-17T02:24:41;10.70;99.90
52451;DHT22;38366;53.176;6.540;2022-09-17T02:27:41;10.70;99.90
52451;DHT22;38366;53.176;6.540;2022-09-17T02:30:11;10.60;99.90
52451;DHT22;38366;53.176;6.540;2022-09-17T02:32:37;10.70;99.90
52451;DHT22;38366;53.176;6.540;2022-09-17T02:35:04;10.80;99.90
52451;DHT22;38366;53.176;6.540;2022-09-17T02:37:31;10.80;99.90
52451;DHT22;38366;53.176;6.540;2022-09-17T02:39:57;10.90;99.90
52451;DHT22;38366;53.176;6.540;2022-09-17T02:46:01;10.90;99.90
52451;DHT22;38366;53.176;6.540;2022-09-17T02:49:01;10.90;99.90
52451;DHT22;38366;53.176;6.540;2022-09-17T02:54:24;10.80;99.90
52451;DHT22;38366;53.176;6.540;2022-09-17T03:02:27;10.70;99.90
52451;DHT22;38366;53.176;6.540;2022-09-17T03:04:55;10.70;99.90
52451;DHT22;38366;53.176;6.540;2022-09-17T03:07:21;10.70;99.90
52451;DHT22;38366;53.176;6.540;2022-09-17T03:09:47;10.60;99.90
52451;DHT22;38366;53.176;6.540;2022-09-17T03:12:13;10.60;99.90
52451;DHT22;38366;53.176;6.540;2022-09-17T03:14:39;10.50;99.90
52451;DHT22;38366;53.176;6.540;2022-09-17T03:17:05;10.40;99.90
52451;DHT22;38366;53.176;6.540;2022-09-17T03:19:31;10.40;99.90
52451;DHT22;38366;53.176;6.540;2022-09-17T03:21:57;10.30;99.90
52451;DHT22;38366;53.176;6.540;2022-09-17T03:24:22;10.30;99.90
52451;DHT22;38366;53.176;6.540;2022-09-17T03:26:48;10.10;99.90
52451;DHT22;38366;53.176;6.540;2022-09-17T03:29:15;10.20;99.90
52451;DHT22;38366;53.176;6.540;2022-09-17T03:31:41;10.10;99.90
52451;DHT22;38366;53.176;6.540;2022-09-17T03:34:07;10.10;99.90
52451;DHT22;38366;53.176;6.540;2022-09-17T03:36:33;10.20;99.90
52451;DHT22;38366;53.176;6.540;2022-09-17T03:38:59;10.20;99.90
52451;DHT22;38366;53.176;6.540;2022-09-17T03:41:25;10.30;99.90
52451;DHT22;38366;53.176;6.540;2022-09-17T03:43:51;10.40;99.90
52451;DHT22;38366;53.176;6.540;2022-09-17T03:46:17;10.30;99.90
52451;DHT22;38366;53.176;6.540;2022-09-17T03:48:43;10.40;99.90
52451;DHT22;38366;53.176;6.540;2022-09-17T03:51:09;10.50;99.90
52451;DHT22;38366;53.176;6.540;2022-09-17T03:53:34;10.50;99.90
52451;DHT22;38366;53.176;6.540;2022-09-17T03:56:01;10.50;99.90
52451;DHT22;38366;53.176;6.540;2022-09-17T03:58:28;10.50;99.90
52451;DHT22;38366;53.176;6.540;2022-09-17T04:00:54;10.50;99.90
52451;DHT22;38366;53.176;6.540;2022-09-17T04:03:26;10.40;99.90
52451;DHT22;38366;53.176;6.540;2022-09-17T04:05:53;10.20;99.90
52451;DHT22;38366;53.176;6.540;2022-09-17T04:08:18;10.20;99.90
52451;DHT22;38366;53.176;6.540;2022-09-17T04:10:45;10.20;99.90
52451;DHT22;38366;53.176;6.540;2022-09-17T04:13:12;10.00;99.90
52451;DHT22;38366;53.176;6.540;2022-09-17T04:15:38;9.90;99.90
52451;DHT22;38366;53.176;6.540;2022-09-17T04:18:04;9.80;99.90
52451;DHT22;38366;53.176;6.540;2022-09-17T04:20:30;9.70;99.90
52451;DHT22;38366;53.176;6.540;2022-09-17T04:22:55;9.70;99.90
52451;DHT22;38366;53.176;6.540;2022-09-17T04:25:22;9.60;99.90
52451;DHT22;38366;53.176;6.540;2022-09-17T04:27:48;9.80;99.90
52451;DHT22;38366;53.176;6.540;2022-09-17T04:30:14;9.50;99.90
52451;DHT22;38366;53.176;6.540;2022-09-17T04:32:40;9.40;99.90
52451;DHT22;38366;53.176;6.540;2022-09-17T04:35:07;9.30;99.90
52451;DHT22;38366;53.176;6.540;2022-09-17T04:37:33;9.40;99.90
52451;DHT22;38366;53.176;6.540;2022-09-17T04:39:58;9.40;99.90
52451;DHT22;38366;53.176;6.540;2022-09-17T04:42:24;9.40;99.90
52451;DHT22;38366;53.176;6.540;2022-09-17T04:44:50;9.30;99.90
52451;DHT22;38366;53.176;6.540;2022-09-17T04:47:15;9.30;99.90
52451;DHT22;38366;53.176;6.540;2022-09-17T04:49:41;9.30;99.90
52451;DHT22;38366;53.176;6.540;2022-09-17T04:52:07;9.30;99.90
52451;DHT22;38366;53.176;6.540;2022-09-17T04:54:32;9.30;99.90
52451;DHT22;38366;53.176;6.540;2022-09-17T04:56:59;9.30;99.90
52451;DHT22;38366;53.176;6.540;2022-09-17T04:59:24;9.30;99.90
52451;DHT22;38366;53.176;6.540;2022-09-17T05:01:50;9.30;99.90
52451;DHT22;38366;53.176;6.540;2022-09-17T05:04:16;9.30;99.90
52451;DHT22;38366;53.176;6.540;2022-09-17T05:06:42;9.30;99.90
52451;DHT22;38366;53.176;6.540;2022-09-17T05:09:07;9.20;99.90
52451;DHT22;38366;53.176;6.540;2022-09-17T05:11:33;9.10;99.90
52451;DHT22;38366;53.176;6.540;2022-09-17T05:13:59;9.10;99.90
52451;DHT22;38366;53.176;6.540;2022-09-17T05:16:24;9.10;99.90
52451;DHT22;38366;53.176;6.540;2022-09-17T05:18:50;9.10;99.90
52451;DHT22;38366;53.176;6.540;2022-09-17T05:21:17;9.10;99.90
52451;DHT22;38366;53.176;6.540;2022-09-17T05:23:43;9.10;99.90
52451;DHT22;38366;53.176;6.540;2022-09-17T05:26:08;9.20;99.90
52451;DHT22;38366;53.176;6.540;2022-09-17T05:28:34;9.20;99.90
52451;DHT22;38366;53.176;6.540;2022-09-17T05:31:01;9.30;99.90
52451;DHT22;38366;53.176;6.540;2022-09-17T05:33:27;9.40;99.90
52451;DHT22;38366;53.176;6.540;2022-09-17T05:35:53;9.60;99.90
52451;DHT22;38366;53.176;6.540;2022-09-17T05:38:19;9.70;99.90
52451;DHT22;38366;53.176;6.540;2022-09-17T05:40:45;9.90;99.90
52451;DHT22;38366;53.176;6.540;2022-09-17T05:43:11;10.00;99.90
52451;DHT22;38366;53.176;6.540;2022-09-17T05:45:37;10.20;99.90
52451;DHT22;38366;53.176;6.540;2022-09-17T05:48:05;10.40;99.90
52451;DHT22;38366;53.176;6.540;2022-09-17T05:50:31;10.40;99.90
52451;DHT22;38366;53.176;6.540;2022-09-17T05:53:09;10.50;99.90
52451;DHT22;38366;53.176;6.540;2022-09-17T05:55:36;10.50;99.90
52451;DHT22;38366;53.176;6.540;2022-09-17T05:58:09;10.50;99.90
52451;DHT22;38366;53.176;6.540;2022-09-17T06:00:35;10.40;99.90
52451;DHT22;38366;53.176;6.540;2022-09-17T06:03:01;10.30;99.90
52451;DHT22;38366;53.176;6.540;2022-09-17T06:05:27;10.30;99.90
52451;DHT22;38366;53.176;6.540;2022-09-17T06:07:53;10.30;99.90
52451;DHT22;38366;53.176;6.540;2022-09-17T06:10:18;10.20;99.90
52451;DHT22;38366;53.176;6.540;2022-09-17T06:12:44;10.30;99.90
52451;DHT22;38366;53.176;6.540;2022-09-17T06:15:10;10.40;99.90
52451;DHT22;38366;53.176;6.540;2022-09-17T06:17:39;10.30;99.90
52451;DHT22;38366;53.176;6.540;2022-09-17T06:20:05;10.30;99.90
52451;DHT22;38366;53.176;6.540;2022-09-17T06:22:31;10.30;99.90
52451;DHT22;38366;53.176;6.540;2022-09-17T06:24:57;10.20;99.90
52451;DHT22;38366;53.176;6.540;2022-09-17T06:27:32;10.20;99.90
52451;DHT22;38366;53.176;6.540;2022-09-17T06:29:58;10.20;99.90
52451;DHT22;38366;53.176;6.540;2022-09-17T06:32:24;10.10;99.90
52451;DHT22;38366;53.176;6.540;2022-09-17T06:34:49;10.10;99.90
52451;DHT22;38366;53.176;6.540;2022-09-17T06:37:15;10.10;99.90
52451;DHT22;38366;53.176;6.540;2022-09-17T06:39:41;10.30;99.90
52451;DHT22;38366;53.176;6.540;2022-09-17T06:42:06;10.50;99.90
52451;DHT22;38366;53.176;6.540;2022-09-17T06:44:32;10.80;99.90
52451;DHT22;38366;53.176;6.540;2022-09-17T06:46:58;10.80;99.90
52451;DHT22;38366;53.176;6.540;2022-09-17T06:49:23;10.90;99.90
52451;DHT22;38366;53.176;6.540;2022-09-17T06:51:49;10.90;99.90
52451;DHT22;38366;53.176;6.540;2022-09-17T06:54:15;10.90;99.90
52451;DHT22;38366;53.176;6.540;2022-09-17T06:56:40;10.80;99.90
52451;DHT22;38366;53.176;6.540;2022-09-17T06:59:06;10.80;99.90
52451;DHT22;38366;53.176;6.540;2022-09-17T07:01:32;10.90;99.90
52451;DHT22;38366;53.176;6.540;2022-09-17T07:03:57;11.20;99.90
52451;DHT22;38366;53.176;6.540;2022-09-17T07:06:23;11.30;99.90
52451;DHT22;38366;53.176;6.540;2022-09-17T07:08:49;11.60;99.90
52451;DHT22;38366;53.176;6.540;2022-09-17T07:11:14;11.90;99.90
52451;DHT22;38366;53.176;6.540;2022-09-17T07:13:40;12.40;99.90
52451;DHT22;38366;53.176;6.540;2022-09-17T07:16:06;13.10;99.90
52451;DHT22;38366;53.176;6.540;2022-09-17T07:18:32;13.80;99.90
52451;DHT22;38366;53.176;6.540;2022-09-17T07:20:59;14.30;99.90
52451;DHT22;38366;53.176;6.540;2022-09-17T07:23:28;14.40;99.90
52451;DHT22;38366;53.176;6.540;2022-09-17T07:25:55;14.20;99.90
52451;DHT22;38366;53.176;6.540;2022-09-17T07:28:25;13.70;99.90
52451;DHT22;38366;53.176;6.540;2022-09-17T07:30:51;13.20;99.90
52451;DHT22;38366;53.176;6.540;2022-09-17T07:33:18;13.00;99.90
52451;DHT22;38366;53.176;6.540;2022-09-17T07:36:06;13.30;99.90
52451;DHT22;38366;53.176;6.540;2022-09-17T07:38:33;14.10;99.90
52451;DHT22;38366;53.176;6.540;2022-09-17T07:41:01;14.10;99.90
52451;DHT22;38366;53.176;6.540;2022-09-17T07:43:29;14.10;99.90
52451;DHT22;38366;53.176;6.540;2022-09-17T07:45:57;14.20;99.90
52451;DHT22;38366;53.176;6.540;2022-09-17T07:48:23;14.70;99.90
52451;DHT22;38366;53.176;6.540;2022-09-17T07:50:50;15.40;99.90
52451;DHT22;38366;53.176;6.540;2022-09-17T07:53:17;16.20;99.90
52451;DHT22;38366;53.176;6.540;2022-09-17T07:55:54;16.60;99.90
52451;DHT22;38366;53.176;6.540;2022-09-17T07:58:23;17.10;99.90
52451;DHT22;38366;53.176;6.540;2022-09-17T08:00:52;17.30;99.90
52451;DHT22;38366;53.176;6.540;2022-09-17T08:03:17;16.80;99.90
52451;DHT22;38366;53.176;6.540;2022-09-17T08:05:43;16.10;99.90
52451;DHT22;38366;53.176;6.540;2022-09-17T08:08:09;15.60;99.90
52451;DHT22;38366;53.176;6.540;2022-09-17T08:10:34;14.80;99.90
52451;DHT22;38366;53.176;6.540;2022-09-17T08:13:00;14.50;99.90
52451;DHT22;38366;53.176;6.540;2022-09-17T08:15:26;13.80;99.90
52451;DHT22;38366;53.176;6.540;2022-09-17T08:17:52;13.40;99.90
52451;DHT22;38366;53.176;6.540;2022-09-17T08:20:17;13.40;99.90
52451;DHT22;38366;53.176;6.540;2022-09-17T08:22:43;13.70;99.90
52451;DHT22;38366;53.176;6.540;2022-09-17T08:25:10;13.60;99.90
52451;DHT22;38366;53.176;6.540;2022-09-17T08:27:36;13.40;99.90
52451;DHT22;38366;53.176;6.540;2022-09-17T08:30:06;13.20;99.90
52451;DHT22;38366;53.176;6.540;2022-09-17T08:32:31;13.40;99.90
52451;DHT22;38366;53.176;6.540;2022-09-17T08:34:57;14.20;99.90
52451;DHT22;38366;53.176;6.540;2022-09-17T08:37:23;15.30;99.90
52451;DHT22;38366;53.176;6.540;2022-09-17T08:39:49;16.10;99.90
52451;DHT22;38366;53.176;6.540;2022-09-17T08:42:31;16.30;99.90
52451;DHT22;38366;53.176;6.540;2022-09-17T08:45:04;16.30;99.90
52451;DHT22;38366;53.176;6.540;2022-09-17T08:47:37;17.00;99.90
52451;DHT22;38366;53.176;6.540;2022-09-17T09:06:15;14.70;99.90
52451;DHT22;38366;53.176;6.540;2022-09-17T09:08:45;14.50;99.90
52451;DHT22;38366;53.176;6.540;2022-09-17T09:11:17;14.80;99.90
52451;DHT22;38366;53.176;6.540;2022-09-17T09:13:49;15.30;99.90
52451;DHT22;38366;53.176;6.540;2022-09-17T09:16:28;15.60;99.90
52451;DHT22;38366;53.176;6.540;2022-09-17T09:19:00;15.50;99.90
52451;DHT22;38366;53.176;6.540;2022-09-17T09:21:38;15.00;99.90
52451;DHT22;38366;53.176;6.540;2022-09-17T09:24:21;14.70;99.90
52451;DHT22;38366;53.176;6.540;2022-09-17T09:32:32;15.50;99.90
52451;DHT22;38366;53.176;6.540;2022-09-17T09:37:41;16.80;99.90
52451;DHT22;38366;53.176;6.540;2022-09-17T09:42:52;15.40;99.90
52451;DHT22;38366;53.176;6.540;2022-09-17T09:59:12;16.80;99.90
52451;DHT22;38366;53.176;6.540;2022-09-17T10:01:40;17.20;99.90
52451;DHT22;38366;53.176;6.540;2022-09-17T10:04:33;17.80;99.90
52451;DHT22;38366;53.176;6.540;2022-09-17T10:07:07;18.70;99.90
52451;DHT22;38366;53.176;6.540;2022-09-17T10:09:36;19.10;99.90
52451;DHT22;38366;53.176;6.540;2022-09-17T10:14:30;20.00;99.90
52451;DHT22;38366;53.176;6.540;2022-09-17T10:19:40;18.90;99.90
52451;DHT22;38366;53.176;6.540;2022-09-17T10:22:33;18.20;99.90
52451;DHT22;38366;53.176;6.540;2022-09-17T10:25:01;17.10;99.90
52451;DHT22;38366;53.176;6.540;2022-09-17T10:27:29;16.30;99.90
52451;DHT22;38366;53.176;6.540;2022-09-17T10:32:32;15.40;99.90
52451;DHT22;38366;53.176;6.540;2022-09-17T10:37:44;15.00;99.90
52451;DHT22;38366;53.176;6.540;2022-09-17T10:40:25;15.10;99.90
52451;DHT22;38366;53.176;6.540;2022-09-17T10:45:43;15.50;99.90
52451;DHT22;38366;53.176;6.540;2022-09-17T10:48:17;15.40;99.90
52451;DHT22;38366;53.176;6.540;2022-09-17T10:51:03;15.30;99.90
52451;DHT22;38366;53.176;6.540;2022-09-17T10:56:33;15.20;99.90
52451;DHT22;38366;53.176;6.540;2022-09-17T11:02:03;15.10;99.90
52451;DHT22;38366;53.176;6.540;2022-09-17T11:04:45;15.30;99.90
52451;DHT22;38366;53.176;6.540;2022-09-17T11:07:43;16.30;99.90
52451;DHT22;38366;53.176;6.540;2022-09-17T11:10:17;17.40;99.90
52451;DHT22;38366;53.176;6.540;2022-09-17T11:18:59;19.50;99.90
52451;DHT22;38366;53.176;6.540;2022-09-17T11:21:38;18.50;99.90
52451;DHT22;38366;53.176;6.540;2022-09-17T11:27:33;17.40;99.90
52451;DHT22;38366;53.176;6.540;2022-09-17T11:30:09;17.20;99.90
52451;DHT22;38366;53.176;6.540;2022-09-17T11:32:42;17.20;99.90
52451;DHT22;38366;53.176;6.540;2022-09-17T11:35:31;16.90;99.90
52451;DHT22;38366;53.176;6.540;2022-09-17T11:41:03;17.10;99.90
52451;DHT22;38366;53.176;6.540;2022-09-17T11:43:33;17.80;99.90
52451;DHT22;38366;53.176;6.540;2022-09-17T11:46:23;18.40;99.90
52451;DHT22;38366;53.176;6.540;2022-09-17T11:49:03;19.10;98.50
52451;DHT22;38366;53.176;6.540;2022-09-17T11:51:30;19.60;98.30
52451;DHT22;38366;53.176;6.540;2022-09-17T11:57:18;19.20;97.70
52451;DHT22;38366;53.176;6.540;2022-09-17T12:02:18;18.30;99.90
52451;DHT22;38366;53.176;6.540;2022-09-17T12:05:01;17.80;99.90
52451;DHT22;38366;53.176;6.540;2022-09-17T12:07:33;18.20;99.90
52451;DHT22;38366;53.176;6.540;2022-09-17T12:13:29;19.40;98.60
52451;DHT22;38366;53.176;6.540;2022-09-17T12:16:21;19.80;97.50
52451;DHT22;38366;53.176;6.540;2022-09-17T12:21:35;20.40;96.40
52451;DHT22;38366;53.176;6.540;2022-09-17T12:24:22;20.40;96.80
52451;DHT22;38366;53.176;6.540;2022-09-17T12:32:34;19.80;96.50
52451;DHT22;38366;53.176;6.540;2022-09-17T12:38:02;20.30;95.80
52451;DHT22;38366;53.176;6.540;2022-09-17T12:59:33;19.10;96.10
52451;DHT22;38366;53.176;6.540;2022-09-17T13:02:16;19.00;96.90
52451;DHT22;38366;53.176;6.540;2022-09-17T13:20:59;18.90;96.80
52451;DHT22;38366;53.176;6.540;2022-09-17T13:23:45;18.50;97.10
52451;DHT22;38366;53.176;6.540;2022-09-17T13:26:13;18.30;97.90
52451;DHT22;38366;53.176;6.540;2022-09-17T13:28:50;17.90;98.30
52451;DHT22;38366;53.176;6.540;2022-09-17T13:31:21;17.80;98.60
52451;DHT22;38366;53.176;6.540;2022-09-17T13:36:53;17.70;95.90
52451;DHT22;38366;53.176;6.540;2022-09-17T13:42:05;17.80;94.90
52451;DHT22;38366;53.176;6.540;2022-09-17T13:44:36;18.00;95.30
52451;DHT22;38366;53.176;6.540;2022-09-17T13:49:51;17.90;95.70
52451;DHT22;38366;53.176;6.540;2022-09-17T13:52:42;18.00;95.90
52451;DHT22;38366;53.176;6.540;2022-09-17T13:55:38;17.90;95.90
52451;DHT22;38366;53.176;6.540;2022-09-17T13:58:11;17.70;95.90
52451;DHT22;38366;53.176;6.540;2022-09-17T14:16:46;17.90;97.30
52451;DHT22;38366;53.176;6.540;2022-09-17T14:22:00;17.20;99.90
52451;DHT22;38366;53.176;6.540;2022-09-17T14:24:36;16.50;99.90
52451;DHT22;38366;53.176;6.540;2022-09-17T14:38:01;16.00;99.90
52451;DHT22;38366;53.176;6.540;2022-09-17T14:40:27;15.80;99.90
52451;DHT22;38366;53.176;6.540;2022-09-17T14:42:57;15.80;99.90
52451;DHT22;38366;53.176;6.540;2022-09-17T14:45:30;16.00;99.90
52451;DHT22;38366;53.176;6.540;2022-09-17T14:48:16;15.70;99.90
52451;DHT22;38366;53.176;6.540;2022-09-17T14:50:41;15.80;99.90
52451;DHT22;38366;53.176;6.540;2022-09-17T14:53:14;16.00;99.90
52451;DHT22;38366;53.176;6.540;2022-09-17T14:55:41;16.10;99.90
52451;DHT22;38366;53.176;6.540;2022-09-17T14:58:29;16.20;99.90
52451;DHT22;38366;53.176;6.540;2022-09-17T15:00:56;16.30;99.90
52451;DHT22;38366;53.176;6.540;2022-09-17T15:03:23;16.30;99.90
52451;DHT22;38366;53.176;6.540;2022-09-17T15:05:49;16.30;99.90
52451;DHT22;38366;53.176;6.540;2022-09-17T15:08:22;16.50;99.90
52451;DHT22;38366;53.176;6.540;2022-09-17T15:10:58;16.40;99.90
52451;DHT22;38366;53.176;6.540;2022-09-17T15:13:28;16.30;99.90
52451;DHT22;38366;53.176;6.540;2022-09-17T15:16:04;16.30;99.90
52451;DHT22;38366;53.176;6.540;2022-09-17T15:18:38;16.30;99.90
52451;DHT22;38366;53.176;6.540;2022-09-17T15:21:32;16.00;99.90
52451;DHT22;38366;53.176;6.540;2022-09-17T15:26:40;15.70;99.90
52451;DHT22;38366;53.176;6.540;2022-09-17T15:29:10;15.70;99.90
52451;DHT22;38366;53.176;6.540;2022-09-17T15:31:36;15.60;99.90
52451;DHT22;38366;53.176;6.540;2022-09-17T15:34:02;15.00;99.90
52451;DHT22;38366;53.176;6.540;2022-09-17T15:36:28;14.60;99.90
52451;DHT22;38366;53.176;6.540;2022-09-17T15:38:56;14.40;99.90
52451;DHT22;38366;53.176;6.540;2022-09-17T15:41:24;14.20;99.90
52451;DHT22;38366;53.176;6.540;2022-09-17T15:43:51;14.10;99.90
52451;DHT22;38366;53.176;6.540;2022-09-17T15:46:28;14.20;99.90
52451;DHT22;38366;53.176;6.540;2022-09-17T15:48:58;14.20;99.90
52451;DHT22;38366;53.176;6.540;2022-09-17T15:53:55;14.10;99.90
52451;DHT22;38366;53.176;6.540;2022-09-17T15:56:29;14.00;99.90
52451;DHT22;38366;53.176;6.540;2022-09-17T15:59:00;13.90;99.90
52451;DHT22;38366;53.176;6.540;2022-09-17T16:08:58;14.20;99.90
52451;DHT22;38366;53.176;6.540;2022-09-17T16:11:27;14.20;99.90
52451;DHT22;38366;53.176;6.540;2022-09-17T16:13:55;14.30;99.90
52451;DHT22;38366;53.176;6.540;2022-09-17T16:16:41;14.30;99.90
52451;DHT22;38366;53.176;6.540;2022-09-17T16:19:08;14.30;99.90
52451;DHT22;38366;53.176;6.540;2022-09-17T16:21:34;14.30;99.90
52451;DHT22;38366;53.176;6.540;2022-09-17T16:24:00;14.40;99.90
52451;DHT22;38366;53.176;6.540;2022-09-17T16:26:34;14.40;99.90
52451;DHT22;38366;53.176;6.540;2022-09-17T16:29:26;14.40;99.90
52451;DHT22;38366;53.176;6.540;2022-09-17T16:31:52;14.50;99.90
52451;DHT22;38366;53.176;6.540;2022-09-17T16:34:17;14.50;99.90
52451;DHT22;38366;53.176;6.540;2022-09-17T16:36:43;14.50;99.90
52451;DHT22;38366;53.176;6.540;2022-09-17T16:39:09;14.50;99.90
52451;DHT22;38366;53.176;6.540;2022-09-17T16:41:34;14.50;99.90
52451;DHT22;38366;53.176;6.540;2022-09-17T16:44:00;14.50;99.90
52451;DHT22;38366;53.176;6.540;2022-09-17T16:46:26;14.50;99.90
52451;DHT22;38366;53.176;6.540;2022-09-17T16:48:52;14.60;99.90
52451;DHT22;38366;53.176;6.540;2022-09-17T16:51:17;14.60;99.90
52451;DHT22;38366;53.176;6.540;2022-09-17T16:53:43;14.60;99.90
52451;DHT22;38366;53.176;6.540;2022-09-17T16:56:11;14.70;99.90
52451;DHT22;38366;53.176;6.540;2022-09-17T16:58:37;14.80;99.90
52451;DHT22;38366;53.176;6.540;2022-09-17T17:01:14;14.70;99.90
52451;DHT22;38366;53.176;6.540;2022-09-17T17:03:40;14.50;99.90
52451;DHT22;38366;53.176;6.540;2022-09-17T17:06:15;14.40;99.90
52451;DHT22;38366;53.176;6.540;2022-09-17T17:08:40;14.30;99.90
52451;DHT22;38366;53.176;6.540;2022-09-17T17:11:06;14.20;99.90
52451;DHT22;38366;53.176;6.540;2022-09-17T17:13:32;14.00;99.90
52451;DHT22;38366;53.176;6.540;2022-09-17T17:15:57;14.00;99.90
52451;DHT22;38366;53.176;6.540;2022-09-17T17:18:23;14.00;99.90
52451;DHT22;38366;53.176;6.540;2022-09-17T17:20:49;13.90;99.90
52451;DHT22;38366;53.176;6.540;2022-09-17T17:23:15;13.80;99.90
52451;DHT22;38366;53.176;6.540;2022-09-17T17:25:41;13.70;99.90
52451;DHT22;38366;53.176;6.540;2022-09-17T17:28:07;13.60;99.90
52451;DHT22;38366;53.176;6.540;2022-09-17T17:30:33;13.60;99.90
52451;DHT22;38366;53.176;6.540;2022-09-17T17:32:58;13.50;99.90
52451;DHT22;38366;53.176;6.540;2022-09-17T17:35:28;13.40;99.90
52451;DHT22;38366;53.176;6.540;2022-09-17T17:37:54;13.30;99.90
52451;DHT22;38366;53.176;6.540;2022-09-17T17:40:20;13.10;99.90
52451;DHT22;38366;53.176;6.540;2022-09-17T17:42:50;12.90;99.90
52451;DHT22;38366;53.176;6.540;2022-09-17T17:45:16;12.80;99.90
52451;DHT22;38366;53.176;6.540;2022-09-17T17:47:42;12.70;99.90
52451;DHT22;38366;53.176;6.540;2022-09-17T17:50:07;12.60;99.90
52451;DHT22;38366;53.176;6.540;2022-09-17T17:52:35;12.60;99.90
52451;DHT22;38366;53.176;6.540;2022-09-17T17:55:03;12.60;99.90
52451;DHT22;38366;53.176;6.540;2022-09-17T17:57:29;12.60;99.90
52451;DHT22;38366;53.176;6.540;2022-09-17T17:59:54;12.50;99.90
52451;DHT22;38366;53.176;6.540;2022-09-17T18:02:20;12.50;99.90
52451;DHT22;38366;53.176;6.540;2022-09-17T18:04:46;12.50;99.90
52451;DHT22;38366;53.176;6.540;2022-09-17T18:07:11;12.60;99.90
52451;DHT22;38366;53.176;6.540;2022-09-17T18:09:37;12.50;99.90
52451;DHT22;38366;53.176;6.540;2022-09-17T18:12:03;12.60;99.90
52451;DHT22;38366;53.176;6.540;2022-09-17T18:14:29;12.60;99.90
52451;DHT22;38366;53.176;6.540;2022-09-17T18:16:54;12.60;99.90
52451;DHT22;38366;53.176;6.540;2022-09-17T18:19:20;12.60;99.90
52451;DHT22;38366;53.176;6.540;2022-09-17T18:21:46;12.50;99.90
52451;DHT22;38366;53.176;6.540;2022-09-17T18:24:11;12.50;99.90
52451;DHT22;38366;53.176;6.540;2022-09-17T18:26:37;12.50;99.90
52451;DHT22;38366;53.176;6.540;2022-09-17T18:29:03;12.50;99.90
52451;DHT22;38366;53.176;6.540;2022-09-17T18:31:33;12.50;99.90
52451;DHT22;38366;53.176;6.540;2022-09-17T18:34:08;12.50;99.90
52451;DHT22;38366;53.176;6.540;2022-09-17T18:36:35;12.50;99.90
52451;DHT22;38366;53.176;6.540;2022-09-17T18:39:05;12.50;99.90
52451;DHT22;38366;53.176;6.540;2022-09-17T18:41:36;12.50;99.90
52451;DHT22;38366;53.176;6.540;2022-09-17T18:44:05;12.40;99.90
52451;DHT22;38366;53.176;6.540;2022-09-17T18:46:30;12.30;99.90
52451;DHT22;38366;53.176;6.540;2022-09-17T18:48:57;12.20;99.90
52451;DHT22;38366;53.176;6.540;2022-09-17T18:51:24;12.20;99.90
52451;DHT22;38366;53.176;6.540;2022-09-17T18:53:51;12.20;99.90
52451;DHT22;38366;53.176;6.540;2022-09-17T18:56:22;12.20;99.90
52451;DHT22;38366;53.176;6.540;2022-09-17T18:58:50;12.20;99.90
52451;DHT22;38366;53.176;6.540;2022-09-17T19:01:17;12.30;99.90
52451;DHT22;38366;53.176;6.540;2022-09-17T19:03:43;12.30;99.90
52451;DHT22;38366;53.176;6.540;2022-09-17T19:06:11;12.20;99.90
52451;DHT22;38366;53.176;6.540;2022-09-17T19:08:37;12.30;99.90
52451;DHT22;38366;53.176;6.540;2022-09-17T19:11:04;12.20;99.90
52451;DHT22;38366;53.176;6.540;2022-09-17T19:13:36;12.20;99.90
52451;DHT22;38366;53.176;6.540;2022-09-17T19:16:03;12.20;99.90
52451;DHT22;38366;53.176;6.540;2022-09-17T19:18:29;12.20;99.90
52451;DHT22;38366;53.176;6.540;2022-09-17T19:21:00;12.20;99.90
52451;DHT22;38366;53.176;6.540;2022-09-17T19:23:27;12.20;99.90
52451;DHT22;38366;53.176;6.540;2022-09-17T19:25:53;12.20;99.90
52451;DHT22;38366;53.176;6.540;2022-09-17T19:28:19;12.30;99.90